sensor_id;sensor_type;location;lat;lon;timestamp;temperature;humidity
24217;DHT22;12356;49.386;8.688;2023-09-18T00:00:56;24.90;2.70
24217;DHT22;12356;49.386;8.688;2023-09-18T00:03:27;24.90;3.30
24217;DHT22;12356;49.386;8.688;2023-09-18T00:05:58;24.90;3.20
24217;DHT22;12356;49.386;8.688;2023-09-18T00:08:29;24.90;3.10
24217;DHT22;12356;49.386;8.688;2023-09-18T00:10:59;24.90;2.20
24217;DHT22;12356;49.386;8.688;2023-09-18T00:13:30;24.90;3.40
24217;DHT22;12356;49.386;8.688;2023-09-18T00:16:01;24.80;3.40
24217;DHT22;12356;49.386;8.688;2023-09-18T00:18:33;24.80;4.10
24217;DHT22;12356;49.386;8.688;2023-09-18T00:21:04;24.80;4.30
24217;DHT22;12356;49.386;8.688;2023-09-18T00:23:34;24.70;4.50
24217;DHT22;12356;49.386;8.688;2023-09-18T00:26:05;24.70;3.20
24217;DHT22;12356;49.386;8.688;2023-09-18T00:28:36;24.70;4.10
24217;DHT22;12356;49.386;8.688;2023-09-18T00:31:06;24.70;4.50
24217;DHT22;12356;49.386;8.688;2023-09-18T00:33:37;24.70;4.10
24217;DHT22;12356;49.386;8.688;2023-09-18T00:36:08;24.70;3.90
24217;DHT22;12356;49.386;8.688;2023-09-18T00:38:39;24.70;3.80
24217;DHT22;12356;49.386;8.688;2023-09-18T00:41:09;24.70;3.90
24217;DHT22;12356;49.386;8.688;2023-09-18T00:43:40;24.70;4.20
24217;DHT22;12356;49.386;8.688;2023-09-18T00:46:11;24.60;4.20
24217;DHT22;12356;49.386;8.688;2023-09-18T00:48:41;24.70;3.40
24217;DHT22;12356;49.386;8.688;2023-09-18T00:51:12;24.70;2.10
24217;DHT22;12356;49.386;8.688;2023-09-18T00:53:44;24.80;3.30
24217;DHT22;12356;49.386;8.688;2023-09-18T00:56:16;24.70;2.80
24217;DHT22;12356;49.386;8.688;2023-09-18T00:58:47;24.70;2.70
24217;DHT22;12356;49.386;8.688;2023-09-18T01:01:19;24.60;2.20
24217;DHT22;12356;49.386;8.688;2023-09-18T01:03:53;24.70;2.70
24217;DHT22;12356;49.386;8.688;2023-09-18T01:06:25;24.70;1.60
24217;DHT22;12356;49.386;8.688;2023-09-18T01:08:58;24.80;2.40
24217;DHT22;12356;49.386;8.688;2023-09-18T01:12:01;24.70;2.40
24217;DHT22;12356;49.386;8.688;2023-09-18T01:14:40;24.70;2.10
24217;DHT22;12356;49.386;8.688;2023-09-18T01:17:14;24.70;2.50
24217;DHT22;12356;49.386;8.688;2023-09-18T01:19:47;24.70;3.10
24217;DHT22;12356;49.386;8.688;2023-09-18T01:22:19;24.70;3.20
24217;DHT22;12356;49.386;8.688;2023-09-18T01:24:49;24.70;3.70
24217;DHT22;12356;49.386;8.688;2023-09-18T01:27:20;24.60;3.40
24217;DHT22;12356;49.386;8.688;2023-09-18T01:29:50;24.60;3.50
24217;DHT22;12356;49.386;8.688;2023-09-18T01:32:24;24.60;4.00
24217;DHT22;12356;49.386;8.688;2023-09-18T01:34:57;24.60;3.70
24217;DHT22;12356;49.386;8.688;2023-09-18T01:37:30;24.60;3.30
24217;DHT22;12356;49.386;8.688;2023-09-18T01:40:01;24.60;3.60
24217;DHT22;12356;49.386;8.688;2023-09-18T01:42:36;24.60;4.20
24217;DHT22;12356;49.386;8.688;2023-09-18T01:45:07;24.50;3.60
24217;DHT22;12356;49.386;8.688;2023-09-18T01:47:38;24.60;3.60
24217;DHT22;12356;49.386;8.688;2023-09-18T01:50:09;24.50;3.90
24217;DHT22;12356;49.386;8.688;2023-09-18T01:52:40;24.50;4.40
24217;DHT22;12356;49.386;8.688;2023-09-18T01:55:10;24.50;3.80
24217;DHT22;12356;49.386;8.688;2023-09-18T01:57:41;24.50;4.10
24217;DHT22;12356;49.386;8.688;2023-09-18T02:00:13;24.50;4.30
24217;DHT22;12356;49.386;8.688;2023-09-18T02:02:44;24.50;3.80
24217;DHT22;12356;49.386;8.688;2023-09-18T02:05:14;24.50;5.60
24217;DHT22;12356;49.386;8.688;2023-09-18T02:07:45;24.50;5.30
24217;DHT22;12356;49.386;8.688;2023-09-18T02:10:16;24.50;6.80
24217;DHT22;12356;49.386;8.688;2023-09-18T02:12:47;24.40;7.00
24217;DHT22;12356;49.386;8.688;2023-09-18T02:15:17;24.40;8.30
24217;DHT22;12356;49.386;8.688;2023-09-18T02:17:48;24.40;8.20
24217;DHT22;12356;49.386;8.688;2023-09-18T02:20:18;24.40;9.00
24217;DHT22;12356;49.386;8.688;2023-09-18T02:22:49;24.30;9.40
24217;DHT22;12356;49.386;8.688;2023-09-18T02:25:19;24.30;8.70
24217;DHT22;12356;49.386;8.688;2023-09-18T02:27:50;24.20;8.20
24217;DHT22;12356;49.386;8.688;2023-09-18T02:30:21;24.20;8.50
24217;DHT22;12356;49.386;8.688;2023-09-18T02:32:52;24.20;8.70
24217;DHT22;12356;49.386;8.688;2023-09-18T02:35:22;24.10;9.00
24217;DHT22;12356;49.386;8.688;2023-09-18T02:37:53;24.10;8.70
24217;DHT22;12356;49.386;8.688;2023-09-18T02:40:24;24.10;9.00
24217;DHT22;12356;49.386;8.688;2023-09-18T02:42:54;24.10;10.20
24217;DHT22;12356;49.386;8.688;2023-09-18T02:45:25;24.00;10.00
24217;DHT22;12356;49.386;8.688;2023-09-18T02:47:55;24.00;9.30
24217;DHT22;12356;49.386;8.688;2023-09-18T02:50:26;24.00;8.50
24217;DHT22;12356;49.386;8.688;2023-09-18T02:52:56;24.00;8.30
24217;DHT22;12356;49.386;8.688;2023-09-18T02:55:27;24.00;8.00
24217;DHT22;12356;49.386;8.688;2023-09-18T02:57:57;24.00;7.50
24217;DHT22;12356;49.386;8.688;2023-09-18T03:00:29;23.90;7.00
24217;DHT22;12356;49.386;8.688;2023-09-18T03:02:59;24.00;7.10
24217;DHT22;12356;49.386;8.688;2023-09-18T03:05:31;24.00;7.30
24217;DHT22;12356;49.386;8.688;2023-09-18T03:08:02;23.90;7.10
24217;DHT22;12356;49.386;8.688;2023-09-18T03:10:40;23.90;8.00
24217;DHT22;12356;49.386;8.688;2023-09-18T03:13:13;23.90;8.50
24217;DHT22;12356;49.386;8.688;2023-09-18T03:15:47;23.90;10.30
24217;DHT22;12356;49.386;8.688;2023-09-18T03:18:17;23.90;11.60
24217;DHT22;12356;49.386;8.688;2023-09-18T03:20:48;23.90;12.00
24217;DHT22;12356;49.386;8.688;2023-09-18T03:23:18;23.80;11.80
24217;DHT22;12356;49.386;8.688;2023-09-18T03:25:49;23.80;11.10
24217;DHT22;12356;49.386;8.688;2023-09-18T03:28:20;23.70;11.00
24217;DHT22;12356;49.386;8.688;2023-09-18T03:30:50;23.70;11.80
24217;DHT22;12356;49.386;8.688;2023-09-18T03:33:21;23.70;11.90
24217;DHT22;12356;49.386;8.688;2023-09-18T03:35:52;23.70;12.40
24217;DHT22;12356;49.386;8.688;2023-09-18T03:38:24;23.60;13.00
24217;DHT22;12356;49.386;8.688;2023-09-18T03:40:55;23.60;13.10
24217;DHT22;12356;49.386;8.688;2023-09-18T03:43:25;23.60;13.30
24217;DHT22;12356;49.386;8.688;2023-09-18T03:46:06;23.50;13.30
24217;DHT22;12356;49.386;8.688;2023-09-18T03:48:37;23.50;13.50
24217;DHT22;12356;49.386;8.688;2023-09-18T03:51:08;23.50;13.90
24217;DHT22;12356;49.386;8.688;2023-09-18T03:53:38;23.40;14.20
24217;DHT22;12356;49.386;8.688;2023-09-18T03:56:09;23.40;14.40
24217;DHT22;12356;49.386;8.688;2023-09-18T03:58:39;23.30;15.20
24217;DHT22;12356;49.386;8.688;2023-09-18T04:01:10;23.30;15.30
24217;DHT22;12356;49.386;8.688;2023-09-18T04:03:44;23.20;15.20
24217;DHT22;12356;49.386;8.688;2023-09-18T04:06:15;23.20;15.90
24217;DHT22;12356;49.386;8.688;2023-09-18T04:08:45;23.20;16.30
24217;DHT22;12356;49.386;8.688;2023-09-18T04:11:16;23.10;16.70
24217;DHT22;12356;49.386;8.688;2023-09-18T04:13:47;23.10;17.50
24217;DHT22;12356;49.386;8.688;2023-09-18T04:16:18;23.10;19.50
24217;DHT22;12356;49.386;8.688;2023-09-18T04:18:48;23.10;25.00
24217;DHT22;12356;49.386;8.688;2023-09-18T04:21:19;22.90;27.40
24217;DHT22;12356;49.386;8.688;2023-09-18T04:23:51;22.80;29.00
24217;DHT22;12356;49.386;8.688;2023-09-18T04:26:28;22.70;32.70
24217;DHT22;12356;49.386;8.688;2023-09-18T04:29:01;22.50;35.60
24217;DHT22;12356;49.386;8.688;2023-09-18T04:31:31;22.30;39.90
24217;DHT22;12356;49.386;8.688;2023-09-18T04:34:02;22.20;42.30
24217;DHT22;12356;49.386;8.688;2023-09-18T04:36:33;22.00;45.90
24217;DHT22;12356;49.386;8.688;2023-09-18T04:39:05;21.90;49.00
24217;DHT22;12356;49.386;8.688;2023-09-18T04:41:35;21.80;49.70
24217;DHT22;12356;49.386;8.688;2023-09-18T04:44:06;21.70;50.00
24217;DHT22;12356;49.386;8.688;2023-09-18T04:46:37;21.60;48.30
24217;DHT22;12356;49.386;8.688;2023-09-18T04:49:08;21.50;48.50
24217;DHT22;12356;49.386;8.688;2023-09-18T04:51:41;21.40;49.70
24217;DHT22;12356;49.386;8.688;2023-09-18T04:54:12;21.40;48.30
24217;DHT22;12356;49.386;8.688;2023-09-18T04:56:42;21.30;47.20
24217;DHT22;12356;49.386;8.688;2023-09-18T04:59:13;21.30;51.50
24217;DHT22;12356;49.386;8.688;2023-09-18T05:01:45;21.20;48.30
24217;DHT22;12356;49.386;8.688;2023-09-18T05:04:15;21.20;51.30
24217;DHT22;12356;49.386;8.688;2023-09-18T05:06:46;21.20;50.80
24217;DHT22;12356;49.386;8.688;2023-09-18T05:09:17;21.20;49.50
24217;DHT22;12356;49.386;8.688;2023-09-18T05:11:47;21.20;51.70
24217;DHT22;12356;49.386;8.688;2023-09-18T05:14:19;21.30;55.00
24217;DHT22;12356;49.386;8.688;2023-09-18T05:16:49;21.30;56.70
24217;DHT22;12356;49.386;8.688;2023-09-18T05:19:20;21.30;56.50
24217;DHT22;12356;49.386;8.688;2023-09-18T05:21:52;21.30;56.20
24217;DHT22;12356;49.386;8.688;2023-09-18T05:24:22;21.30;56.80
24217;DHT22;12356;49.386;8.688;2023-09-18T05:26:57;21.30;57.40
24217;DHT22;12356;49.386;8.688;2023-09-18T05:29:28;21.30;56.40
24217;DHT22;12356;49.386;8.688;2023-09-18T05:31:58;21.30;54.80
24217;DHT22;12356;49.386;8.688;2023-09-18T05:34:29;21.30;53.90
24217;DHT22;12356;49.386;8.688;2023-09-18T05:36:59;21.30;54.40
24217;DHT22;12356;49.386;8.688;2023-09-18T05:39:30;21.30;56.00
24217;DHT22;12356;49.386;8.688;2023-09-18T05:42:02;21.10;56.10
24217;DHT22;12356;49.386;8.688;2023-09-18T05:44:32;21.20;56.90
24217;DHT22;12356;49.386;8.688;2023-09-18T05:47:03;21.20;56.90
24217;DHT22;12356;49.386;8.688;2023-09-18T05:49:34;21.20;58.00
24217;DHT22;12356;49.386;8.688;2023-09-18T05:52:06;21.30;57.50
24217;DHT22;12356;49.386;8.688;2023-09-18T05:54:37;21.30;57.80
24217;DHT22;12356;49.386;8.688;2023-09-18T05:57:07;21.30;57.40
24217;DHT22;12356;49.386;8.688;2023-09-18T06:02:09;21.30;58.40
24217;DHT22;12356;49.386;8.688;2023-09-18T06:04:40;21.20;58.60
24217;DHT22;12356;49.386;8.688;2023-09-18T06:07:11;21.20;58.80
24217;DHT22;12356;49.386;8.688;2023-09-18T06:09:43;21.10;58.40
24217;DHT22;12356;49.386;8.688;2023-09-18T06:12:13;21.10;60.50
24217;DHT22;12356;49.386;8.688;2023-09-18T06:14:44;21.20;61.20
24217;DHT22;12356;49.386;8.688;2023-09-18T06:17:16;21.20;61.70
24217;DHT22;12356;49.386;8.688;2023-09-18T06:19:47;21.30;62.20
24217;DHT22;12356;49.386;8.688;2023-09-18T06:22:18;21.30;62.40
24217;DHT22;12356;49.386;8.688;2023-09-18T06:24:48;21.30;62.20
24217;DHT22;12356;49.386;8.688;2023-09-18T06:27:19;21.30;63.30
24217;DHT22;12356;49.386;8.688;2023-09-18T06:29:50;21.30;62.80
24217;DHT22;12356;49.386;8.688;2023-09-18T06:32:20;21.30;62.30
24217;DHT22;12356;49.386;8.688;2023-09-18T06:34:52;21.20;62.60
24217;DHT22;12356;49.386;8.688;2023-09-18T06:37:22;21.20;62.20
24217;DHT22;12356;49.386;8.688;2023-09-18T06:39:53;21.20;62.00
24217;DHT22;12356;49.386;8.688;2023-09-18T06:42:23;21.20;62.60
24217;DHT22;12356;49.386;8.688;2023-09-18T06:44:54;21.10;62.40
24217;DHT22;12356;49.386;8.688;2023-09-18T06:47:25;21.20;62.90
24217;DHT22;12356;49.386;8.688;2023-09-18T06:49:56;21.20;62.80
24217;DHT22;12356;49.386;8.688;2023-09-18T06:52:28;21.20;61.60
24217;DHT22;12356;49.386;8.688;2023-09-18T06:54:59;21.20;62.40
24217;DHT22;12356;49.386;8.688;2023-09-18T06:57:30;21.20;62.40
24217;DHT22;12356;49.386;8.688;2023-09-18T07:00:00;21.20;61.50
24217;DHT22;12356;49.386;8.688;2023-09-18T07:02:31;21.20;60.40
24217;DHT22;12356;49.386;8.688;2023-09-18T07:05:01;21.20;61.10
24217;DHT22;12356;49.386;8.688;2023-09-18T07:07:33;21.30;61.00
24217;DHT22;12356;49.386;8.688;2023-09-18T07:10:03;21.30;60.20
24217;DHT22;12356;49.386;8.688;2023-09-18T07:12:34;21.20;58.50
24217;DHT22;12356;49.386;8.688;2023-09-18T07:15:05;21.30;59.50
24217;DHT22;12356;49.386;8.688;2023-09-18T07:17:36;21.30;59.40
24217;DHT22;12356;49.386;8.688;2023-09-18T07:20:07;21.30;59.00
24217;DHT22;12356;49.386;8.688;2023-09-18T07:22:46;21.40;59.20
24217;DHT22;12356;49.386;8.688;2023-09-18T07:25:20;21.30;59.10
24217;DHT22;12356;49.386;8.688;2023-09-18T07:27:51;21.30;58.30
24217;DHT22;12356;49.386;8.688;2023-09-18T07:30:21;21.40;58.40
24217;DHT22;12356;49.386;8.688;2023-09-18T07:32:55;21.40;58.90
24217;DHT22;12356;49.386;8.688;2023-09-18T07:35:29;21.40;58.00
24217;DHT22;12356;49.386;8.688;2023-09-18T07:37:59;21.40;58.00
24217;DHT22;12356;49.386;8.688;2023-09-18T07:40:30;21.50;58.70
24217;DHT22;12356;49.386;8.688;2023-09-18T07:43:00;21.40;58.20
24217;DHT22;12356;49.386;8.688;2023-09-18T07:45:31;21.40;58.20
24217;DHT22;12356;49.386;8.688;2023-09-18T07:48:02;21.40;57.10
24217;DHT22;12356;49.386;8.688;2023-09-18T07:50:33;21.40;55.60
24217;DHT22;12356;49.386;8.688;2023-09-18T07:53:03;21.40;56.30
24217;DHT22;12356;49.386;8.688;2023-09-18T07:55:34;21.40;56.80
24217;DHT22;12356;49.386;8.688;2023-09-18T07:58:05;21.40;56.00
24217;DHT22;12356;49.386;8.688;2023-09-18T08:00:35;21.40;55.00
24217;DHT22;12356;49.386;8.688;2023-09-18T08:03:06;21.30;55.00
24217;DHT22;12356;49.386;8.688;2023-09-18T08:05:36;21.30;54.30
24217;DHT22;12356;49.386;8.688;2023-09-18T08:08:07;21.30;53.60
24217;DHT22;12356;49.386;8.688;2023-09-18T08:10:38;21.40;54.20
24217;DHT22;12356;49.386;8.688;2023-09-18T08:13:08;21.40;53.00
24217;DHT22;12356;49.386;8.688;2023-09-18T08:15:39;21.40;53.10
24217;DHT22;12356;49.386;8.688;2023-09-18T08:18:10;21.50;51.30
24217;DHT22;12356;49.386;8.688;2023-09-18T08:20:42;21.50;50.50
24217;DHT22;12356;49.386;8.688;2023-09-18T08:23:13;21.50;50.60
24217;DHT22;12356;49.386;8.688;2023-09-18T08:25:43;21.50;51.50
24217;DHT22;12356;49.386;8.688;2023-09-18T08:28:14;21.50;49.10
24217;DHT22;12356;49.386;8.688;2023-09-18T08:30:45;21.60;49.30
24217;DHT22;12356;49.386;8.688;2023-09-18T08:33:17;21.50;47.00
24217;DHT22;12356;49.386;8.688;2023-09-18T08:35:48;21.50;46.50
24217;DHT22;12356;49.386;8.688;2023-09-18T08:38:20;21.50;47.10
24217;DHT22;12356;49.386;8.688;2023-09-18T08:40:53;21.50;43.80
24217;DHT22;12356;49.386;8.688;2023-09-18T08:43:24;21.50;44.40
24217;DHT22;12356;49.386;8.688;2023-09-18T08:45:55;21.50;45.00
24217;DHT22;12356;49.386;8.688;2023-09-18T08:48:31;21.50;46.20
24217;DHT22;12356;49.386;8.688;2023-09-18T08:51:06;21.50;44.80
24217;DHT22;12356;49.386;8.688;2023-09-18T08:53:37;21.50;43.90
24217;DHT22;12356;49.386;8.688;2023-09-18T08:56:08;21.50;45.90
24217;DHT22;12356;49.386;8.688;2023-09-18T08:58:40;21.50;48.10
24217;DHT22;12356;49.386;8.688;2023-09-18T09:01:13;21.50;49.80
24217;DHT22;12356;49.386;8.688;2023-09-18T09:03:43;21.50;51.60
24217;DHT22;12356;49.386;8.688;2023-09-18T09:06:16;21.40;51.40
24217;DHT22;12356;49.386;8.688;2023-09-18T09:08:47;21.50;53.00
24217;DHT22;12356;49.386;8.688;2023-09-18T09:11:18;21.40;54.10
24217;DHT22;12356;49.386;8.688;2023-09-18T09:14:09;21.40;55.70
24217;DHT22;12356;49.386;8.688;2023-09-18T09:16:46;21.40;54.90
24217;DHT22;12356;49.386;8.688;2023-09-18T09:19:18;21.30;55.00
24217;DHT22;12356;49.386;8.688;2023-09-18T09:22:00;21.30;57.00
24217;DHT22;12356;49.386;8.688;2023-09-18T09:24:42;21.30;56.80
24217;DHT22;12356;49.386;8.688;2023-09-18T09:27:13;21.40;56.40
24217;DHT22;12356;49.386;8.688;2023-09-18T09:30:00;21.40;55.90
24217;DHT22;12356;49.386;8.688;2023-09-18T09:32:32;21.40;56.30
24217;DHT22;12356;49.386;8.688;2023-09-18T09:35:04;21.40;55.70
24217;DHT22;12356;49.386;8.688;2023-09-18T09:37:37;21.40;57.10
24217;DHT22;12356;49.386;8.688;2023-09-18T09:40:12;21.40;56.70
24217;DHT22;12356;49.386;8.688;2023-09-18T09:42:45;21.40;53.90
24217;DHT22;12356;49.386;8.688;2023-09-18T09:45:16;21.40;52.80
24217;DHT22;12356;49.386;8.688;2023-09-18T09:47:47;21.40;50.80
24217;DHT22;12356;49.386;8.688;2023-09-18T09:50:18;21.40;49.70
24217;DHT22;12356;49.386;8.688;2023-09-18T09:52:50;21.40;49.70
24217;DHT22;12356;49.386;8.688;2023-09-18T09:55:31;21.40;47.80
24217;DHT22;12356;49.386;8.688;2023-09-18T09:58:05;21.40;49.00
24217;DHT22;12356;49.386;8.688;2023-09-18T10:00:46;21.40;48.00
24217;DHT22;12356;49.386;8.688;2023-09-18T10:03:20;21.40;49.70
24217;DHT22;12356;49.386;8.688;2023-09-18T10:05:52;21.40;49.70
24217;DHT22;12356;49.386;8.688;2023-09-18T10:08:26;21.50;47.10
24217;DHT22;12356;49.386;8.688;2023-09-18T10:11:00;21.40;46.90
24217;DHT22;12356;49.386;8.688;2023-09-18T10:13:55;21.40;46.80
24217;DHT22;12356;49.386;8.688;2023-09-18T10:16:24;21.40;46.80
24217;DHT22;12356;49.386;8.688;2023-09-18T10:19:17;21.50;48.50
24217;DHT22;12356;49.386;8.688;2023-09-18T10:22:17;21.50;48.60
24217;DHT22;12356;49.386;8.688;2023-09-18T10:24:57;21.50;49.80
24217;DHT22;12356;49.386;8.688;2023-09-18T10:27:32;21.60;48.90
24217;DHT22;12356;49.386;8.688;2023-09-18T10:30:05;21.60;47.70
24217;DHT22;12356;49.386;8.688;2023-09-18T10:32:39;21.60;45.90
24217;DHT22;12356;49.386;8.688;2023-09-18T10:35:10;21.60;46.00
24217;DHT22;12356;49.386;8.688;2023-09-18T10:37:42;21.60;46.80
24217;DHT22;12356;49.386;8.688;2023-09-18T10:40:16;21.70;45.90
24217;DHT22;12356;49.386;8.688;2023-09-18T10:42:48;21.70;44.90
24217;DHT22;12356;49.386;8.688;2023-09-18T10:45:20;21.70;44.80
24217;DHT22;12356;49.386;8.688;2023-09-18T10:47:51;21.80;45.40
24217;DHT22;12356;49.386;8.688;2023-09-18T10:50:24;21.80;44.30
24217;DHT22;12356;49.386;8.688;2023-09-18T10:52:58;21.80;43.60
24217;DHT22;12356;49.386;8.688;2023-09-18T10:55:29;21.90;43.50
24217;DHT22;12356;49.386;8.688;2023-09-18T10:58:00;21.90;43.60
24217;DHT22;12356;49.386;8.688;2023-09-18T11:00:32;21.90;41.50
24217;DHT22;12356;49.386;8.688;2023-09-18T11:03:12;22.00;41.80
24217;DHT22;12356;49.386;8.688;2023-09-18T11:05:47;22.00;39.60
24217;DHT22;12356;49.386;8.688;2023-09-18T11:08:29;22.00;39.20
24217;DHT22;12356;49.386;8.688;2023-09-18T11:11:11;22.10;39.30
24217;DHT22;12356;49.386;8.688;2023-09-18T11:13:44;22.10;37.30
24217;DHT22;12356;49.386;8.688;2023-09-18T11:21:32;22.20;36.90
24217;DHT22;12356;49.386;8.688;2023-09-18T11:24:08;22.20;38.00
24217;DHT22;12356;49.386;8.688;2023-09-18T11:26:43;22.30;35.60
24217;DHT22;12356;49.386;8.688;2023-09-18T11:29:16;22.30;34.20
24217;DHT22;12356;49.386;8.688;2023-09-18T11:31:51;22.40;32.60
24217;DHT22;12356;49.386;8.688;2023-09-18T11:34:28;22.30;32.50
24217;DHT22;12356;49.386;8.688;2023-09-18T11:37:02;22.40;33.70
24217;DHT22;12356;49.386;8.688;2023-09-18T11:39:49;22.40;32.90
24217;DHT22;12356;49.386;8.688;2023-09-18T11:42:21;22.40;32.50
24217;DHT22;12356;49.386;8.688;2023-09-18T11:44:57;22.50;32.40
24217;DHT22;12356;49.386;8.688;2023-09-18T11:47:29;22.50;31.80
24217;DHT22;12356;49.386;8.688;2023-09-18T11:49:59;22.50;31.20
24217;DHT22;12356;49.386;8.688;2023-09-18T11:52:30;22.60;31.20
24217;DHT22;12356;49.386;8.688;2023-09-18T11:55:02;22.60;31.90
24217;DHT22;12356;49.386;8.688;2023-09-18T11:57:37;22.60;29.40
24217;DHT22;12356;49.386;8.688;2023-09-18T12:02:49;22.70;29.70
24217;DHT22;12356;49.386;8.688;2023-09-18T12:05:19;22.70;28.00
24217;DHT22;12356;49.386;8.688;2023-09-18T12:07:50;22.70;28.20
24217;DHT22;12356;49.386;8.688;2023-09-18T12:10:21;22.80;27.30
24217;DHT22;12356;49.386;8.688;2023-09-18T12:12:51;22.80;27.10
24217;DHT22;12356;49.386;8.688;2023-09-18T12:15:22;22.80;25.90
24217;DHT22;12356;49.386;8.688;2023-09-18T12:17:55;22.80;26.70
24217;DHT22;12356;49.386;8.688;2023-09-18T12:20:25;22.80;27.60
24217;DHT22;12356;49.386;8.688;2023-09-18T12:22:56;22.80;25.90
24217;DHT22;12356;49.386;8.688;2023-09-18T12:25:27;22.80;25.60
24217;DHT22;12356;49.386;8.688;2023-09-18T12:27:58;22.80;26.20
24217;DHT22;12356;49.386;8.688;2023-09-18T12:30:32;22.80;27.20
24217;DHT22;12356;49.386;8.688;2023-09-18T12:33:03;22.90;27.60
24217;DHT22;12356;49.386;8.688;2023-09-18T12:35:35;22.90;26.50
24217;DHT22;12356;49.386;8.688;2023-09-18T12:38:26;22.90;25.90
24217;DHT22;12356;49.386;8.688;2023-09-18T12:41:02;22.90;25.30
24217;DHT22;12356;49.386;8.688;2023-09-18T12:43:41;23.00;23.00
24217;DHT22;12356;49.386;8.688;2023-09-18T12:46:12;23.00;23.40
24217;DHT22;12356;49.386;8.688;2023-09-18T12:48:43;23.00;23.10
24217;DHT22;12356;49.386;8.688;2023-09-18T12:51:16;23.00;23.00
24217;DHT22;12356;49.386;8.688;2023-09-18T12:54:02;23.00;22.50
24217;DHT22;12356;49.386;8.688;2023-09-18T12:56:42;22.90;21.40
24217;DHT22;12356;49.386;8.688;2023-09-18T12:59:13;23.00;22.50
24217;DHT22;12356;49.386;8.688;2023-09-18T13:01:47;23.00;22.00
24217;DHT22;12356;49.386;8.688;2023-09-18T13:04:18;23.00;21.10
24217;DHT22;12356;49.386;8.688;2023-09-18T13:07:06;23.00;21.30
24217;DHT22;12356;49.386;8.688;2023-09-18T13:09:36;23.10;21.30
24217;DHT22;12356;49.386;8.688;2023-09-18T13:12:08;23.10;21.20
24217;DHT22;12356;49.386;8.688;2023-09-18T13:14:58;23.10;20.30
24217;DHT22;12356;49.386;8.688;2023-09-18T13:17:43;23.10;19.90
24217;DHT22;12356;49.386;8.688;2023-09-18T13:20:17;23.10;21.20
24217;DHT22;12356;49.386;8.688;2023-09-18T13:22:51;23.10;21.00
24217;DHT22;12356;49.386;8.688;2023-09-18T13:25:24;23.20;20.60
24217;DHT22;12356;49.386;8.688;2023-09-18T13:27:54;23.20;20.50
24217;DHT22;12356;49.386;8.688;2023-09-18T13:30:26;23.20;20.60
24217;DHT22;12356;49.386;8.688;2023-09-18T13:33:07;23.20;19.20
24217;DHT22;12356;49.386;8.688;2023-09-18T13:35:40;23.20;18.60
24217;DHT22;12356;49.386;8.688;2023-09-18T13:38:11;23.20;18.00
24217;DHT22;12356;49.386;8.688;2023-09-18T13:40:44;23.20;18.70
24217;DHT22;12356;49.386;8.688;2023-09-18T13:43:15;23.20;18.70
24217;DHT22;12356;49.386;8.688;2023-09-18T13:45:46;23.30;17.20
24217;DHT22;12356;49.386;8.688;2023-09-18T13:48:17;23.20;17.80
24217;DHT22;12356;49.386;8.688;2023-09-18T13:50:48;23.30;18.10
24217;DHT22;12356;49.386;8.688;2023-09-18T13:53:19;23.20;18.20
24217;DHT22;12356;49.386;8.688;2023-09-18T13:55:49;23.20;17.50
24217;DHT22;12356;49.386;8.688;2023-09-18T13:58:20;23.20;18.30
24217;DHT22;12356;49.386;8.688;2023-09-18T14:00:51;23.20;17.20
24217;DHT22;12356;49.386;8.688;2023-09-18T14:03:21;23.20;18.20
24217;DHT22;12356;49.386;8.688;2023-09-18T14:05:53;23.20;18.20
24217;DHT22;12356;49.386;8.688;2023-09-18T14:08:24;23.30;16.90
24217;DHT22;12356;49.386;8.688;2023-09-18T14:10:55;23.20;15.70
24217;DHT22;12356;49.386;8.688;2023-09-18T14:13:25;23.30;15.80
24217;DHT22;12356;49.386;8.688;2023-09-18T14:15:56;23.30;16.10
24217;DHT22;12356;49.386;8.688;2023-09-18T14:18:26;23.40;17.10
24217;DHT22;12356;49.386;8.688;2023-09-18T14:20:57;23.40;16.30
24217;DHT22;12356;49.386;8.688;2023-09-18T14:23:28;23.50;16.90
24217;DHT22;12356;49.386;8.688;2023-09-18T14:25:59;23.50;16.50
24217;DHT22;12356;49.386;8.688;2023-09-18T14:28:31;23.50;15.30
24217;DHT22;12356;49.386;8.688;2023-09-18T14:31:03;23.50;16.00
24217;DHT22;12356;49.386;8.688;2023-09-18T14:33:34;23.60;15.90
24217;DHT22;12356;49.386;8.688;2023-09-18T14:36:07;23.60;15.10
24217;DHT22;12356;49.386;8.688;2023-09-18T14:38:37;23.60;14.90
24217;DHT22;12356;49.386;8.688;2023-09-18T14:41:08;23.60;14.20
24217;DHT22;12356;49.386;8.688;2023-09-18T14:43:40;23.70;14.10
24217;DHT22;12356;49.386;8.688;2023-09-18T14:46:10;23.70;13.50
24217;DHT22;12356;49.386;8.688;2023-09-18T14:48:41;23.70;13.30
24217;DHT22;12356;49.386;8.688;2023-09-18T14:51:11;23.70;14.00
24217;DHT22;12356;49.386;8.688;2023-09-18T14:53:42;23.70;13.30
24217;DHT22;12356;49.386;8.688;2023-09-18T14:56:13;23.80;12.50
24217;DHT22;12356;49.386;8.688;2023-09-18T14:58:43;23.80;12.20
24217;DHT22;12356;49.386;8.688;2023-09-18T15:01:14;23.80;12.70
24217;DHT22;12356;49.386;8.688;2023-09-18T15:03:44;23.80;13.30
24217;DHT22;12356;49.386;8.688;2023-09-18T15:06:15;23.80;13.10
24217;DHT22;12356;49.386;8.688;2023-09-18T15:08:46;23.80;13.30
24217;DHT22;12356;49.386;8.688;2023-09-18T15:11:18;23.80;12.50
24217;DHT22;12356;49.386;8.688;2023-09-18T15:13:49;23.80;12.50
24217;DHT22;12356;49.386;8.688;2023-09-18T15:16:20;23.80;13.10
24217;DHT22;12356;49.386;8.688;2023-09-18T15:18:50;23.90;12.10
24217;DHT22;12356;49.386;8.688;2023-09-18T15:21:21;23.90;12.40
24217;DHT22;12356;49.386;8.688;2023-09-18T15:23:51;23.80;12.50
24217;DHT22;12356;49.386;8.688;2023-09-18T15:26:22;23.90;12.00
24217;DHT22;12356;49.386;8.688;2023-09-18T15:28:52;23.90;11.90
24217;DHT22;12356;49.386;8.688;2023-09-18T15:31:23;23.90;11.40
24217;DHT22;12356;49.386;8.688;2023-09-18T15:33:55;23.80;11.20
24217;DHT22;12356;49.386;8.688;2023-09-18T15:36:25;23.80;11.40
24217;DHT22;12356;49.386;8.688;2023-09-18T15:38:56;23.80;10.80
24217;DHT22;12356;49.386;8.688;2023-09-18T15:41:27;23.80;11.00
24217;DHT22;12356;49.386;8.688;2023-09-18T15:43:58;23.80;11.20
24217;DHT22;12356;49.386;8.688;2023-09-18T15:46:28;23.80;10.80
24217;DHT22;12356;49.386;8.688;2023-09-18T15:49:01;23.80;11.00
24217;DHT22;12356;49.386;8.688;2023-09-18T15:51:31;23.80;11.00
24217;DHT22;12356;49.386;8.688;2023-09-18T15:54:02;23.80;11.40
24217;DHT22;12356;49.386;8.688;2023-09-18T15:56:34;23.80;12.00
24217;DHT22;12356;49.386;8.688;2023-09-18T15:59:04;23.70;11.70
24217;DHT22;12356;49.386;8.688;2023-09-18T16:01:35;23.70;11.20
24217;DHT22;12356;49.386;8.688;2023-09-18T16:04:10;23.70;11.60
24217;DHT22;12356;49.386;8.688;2023-09-18T16:06:40;23.70;11.80
24217;DHT22;12356;49.386;8.688;2023-09-18T16:09:11;23.60;11.60
24217;DHT22;12356;49.386;8.688;2023-09-18T16:11:43;23.60;11.80
24217;DHT22;12356;49.386;8.688;2023-09-18T16:14:13;23.60;11.60
24217;DHT22;12356;49.386;8.688;2023-09-18T16:16:44;23.60;12.00